createdAt,value
2019-05-17T00:05:23.754Z,14.29
2019-05-17T00:13:46.577Z,14.25
2019-05-17T00:22:08.134Z,14.28
2019-05-17T00:30:29.546Z,14.32
2019-05-17T00:38:51.592Z,14.28
2019-05-17T00:47:13.291Z,14.29
2019-05-17T00:55:36.314Z,14.29
2019-05-17T01:03:57.836Z,14.21
2019-05-17T01:12:22.330Z,14.13
2019-05-17T01:20:43.574Z,14.15
2019-05-17T01:29:06.713Z,14.15
2019-05-17T01:37:28.393Z,14.05
2019-05-17T01:45:49.845Z,14.09
2019-05-17T01:54:10.971Z,14.09
2019-05-17T02:02:32.305Z,14.10
2019-05-17T02:10:54.359Z,14.13
2019-05-17T02:19:17.415Z,14.04
2019-05-17T02:27:43.967Z,13.98
2019-05-17T02:36:03.012Z,13.99
2019-05-17T02:44:24.692Z,14.08
2019-05-17T02:52:45.822Z,14.05
2019-05-17T03:01:07.391Z,14.13
2019-05-17T03:09:28.544Z,14.06
2019-05-17T03:17:53.441Z,14.04
2019-05-17T03:26:13.626Z,14.11
2019-05-17T03:34:36.985Z,14.06
2019-05-17T03:42:57.692Z,14.04
2019-05-17T03:51:18.855Z,13.98
2019-05-17T03:59:43.007Z,14.03
2019-05-17T04:08:03.916Z,14.08
2019-05-17T04:16:25.627Z,14.07
2019-05-17T04:24:47.102Z,14.04
2019-05-17T04:33:08.338Z,14.10
2019-05-17T04:41:41.517Z,14.07
2019-05-17T04:49:53.641Z,14.21
2019-05-17T04:58:15.489Z,14.26
2019-05-17T05:06:36.633Z,14.27
2019-05-17T05:14:58.085Z,14.42
2019-05-17T05:23:19.510Z,14.61
2019-05-17T05:31:42.750Z,14.70
2019-05-17T05:40:03.902Z,14.82
2019-05-17T05:48:25.179Z,14.94
2019-05-17T05:56:46.418Z,15.10
2019-05-17T06:05:07.906Z,15.29
2019-05-17T06:13:29.131Z,15.09
2019-05-17T06:21:51.999Z,15.20
2019-05-17T06:30:13.293Z,15.30
2019-05-17T06:38:34.420Z,15.44
2019-05-17T06:46:55.889Z,15.53
2019-05-17T06:55:17.012Z,15.65
2019-05-17T07:03:39.937Z,15.91
2019-05-17T07:12:01.250Z,16.07
2019-05-17T07:20:22.392Z,16.21
2019-05-17T07:28:43.866Z,16.67
2019-05-17T07:37:05.913Z,17.21
2019-05-17T07:45:29.436Z,17.61
2019-05-17T07:53:50.299Z,17.88
2019-05-17T08:02:11.585Z,18.03
2019-05-17T08:10:32.989Z,18.24
2019-05-17T08:18:54.473Z,18.42
2019-05-17T08:27:15.614Z,18.25
2019-05-17T08:35:36.710Z,18.14
2019-05-17T08:44:00.495Z,18.44
2019-05-17T08:52:21.974Z,18.69
2019-05-17T09:00:43.468Z,18.73
2019-05-17T09:09:04.659Z,18.69
2019-05-17T09:17:25.894Z,18.68
2019-05-17T09:25:47.405Z,18.90
2019-05-17T09:34:09.657Z,18.88
2019-05-17T09:42:31.282Z,18.83
2019-05-17T09:50:52.412Z,18.81
2019-05-17T09:59:13.536Z,18.71
2019-05-17T10:07:35.029Z,18.60
2019-05-17T10:15:56.127Z,18.24
2019-05-17T10:24:19.923Z,18.12
2019-05-17T10:32:41.146Z,17.99
2019-05-17T10:41:02.762Z,18.01
2019-05-17T10:49:24.214Z,18.10
2019-05-17T10:57:45.427Z,18.28
2019-05-17T11:06:06.583Z,18.64
2019-05-17T11:14:27.798Z,19.36
2019-05-17T11:22:48.928Z,20.17
2019-05-17T11:31:10.060Z,20.35
2019-05-17T11:39:31.278Z,20.14
2019-05-17T11:47:53.425Z,20.08
2019-05-17T11:56:14.682Z,19.81
2019-05-17T12:04:36.189Z,19.75
2019-05-17T12:12:58.301Z,19.79
2019-05-17T12:21:19.561Z,19.83
2019-05-17T12:29:41.083Z,19.79
2019-05-17T12:38:02.515Z,19.83
2019-05-17T12:46:23.954Z,20.05
2019-05-17T12:54:45.104Z,20.27
2019-05-17T13:03:06.229Z,21.30
2019-05-17T13:11:27.732Z,22.52
2019-05-17T13:19:49.181Z,22.68
2019-05-17T13:28:10.630Z,22.57
2019-05-17T13:36:31.773Z,22.24
2019-05-17T13:44:53.029Z,22.07
2019-05-17T13:53:14.701Z,22.00
2019-05-17T14:01:35.846Z,22.21
2019-05-17T14:09:57.404Z,22.20
2019-05-17T14:18:18.868Z,22.51
2019-05-17T14:26:40.035Z,22.70
2019-05-17T14:35:01.198Z,22.53
2019-05-17T14:43:23.350Z,22.15
2019-05-17T14:51:44.622Z,21.68
2019-05-17T15:00:06.187Z,21.33
2019-05-17T15:08:27.665Z,20.88
2019-05-17T15:16:48.794Z,20.88
2019-05-17T15:25:10.270Z,21.26
2019-05-17T15:33:31.706Z,21.76
2019-05-17T15:41:52.950Z,22.54
2019-05-17T15:50:18.714Z,23.07
2019-05-17T15:58:40.944Z,23.17
2019-05-17T16:07:03.186Z,22.61
2019-05-17T16:23:50.825Z,22.10
2019-05-17T16:32:11.950Z,21.87
2019-05-17T16:40:33.086Z,21.88
2019-05-17T16:48:54.262Z,21.79
2019-05-17T16:57:15.439Z,21.71
2019-05-17T17:05:36.676Z,21.69
2019-05-17T17:13:58.162Z,21.69
2019-05-17T17:22:19.432Z,21.64
2019-05-17T17:30:40.874Z,21.48
2019-05-17T17:39:03.009Z,21.47
2019-05-17T17:47:24.472Z,21.75
2019-05-17T17:55:46.036Z,22.03
2019-05-17T18:04:07.165Z,21.92
2019-05-17T18:12:28.407Z,21.41
2019-05-17T18:20:49.904Z,20.98
2019-05-17T18:29:11.022Z,20.50
2019-05-17T18:37:32.152Z,20.12
2019-05-17T18:45:53.271Z,19.79
2019-05-17T18:54:14.695Z,19.50
2019-05-17T19:02:36.832Z,19.09
2019-05-17T19:10:58.048Z,18.75
2019-05-17T19:19:19.491Z,18.59
2019-05-17T19:27:40.941Z,18.44
2019-05-17T19:36:02.947Z,18.26
2019-05-17T19:44:24.482Z,18.22
2019-05-17T19:52:45.687Z,18.07
2019-05-17T20:01:06.833Z,17.92
2019-05-17T20:09:28.034Z,17.83
2019-05-17T20:17:49.299Z,17.63
2019-05-17T20:26:10.793Z,17.30
2019-05-17T20:34:32.018Z,17.14
2019-05-17T20:42:53.487Z,16.98
2019-05-17T20:51:14.974Z,16.78
2019-05-17T20:59:36.425Z,16.69
2019-05-17T21:07:57.887Z,16.63
2019-05-17T21:16:19.143Z,16.64
2019-05-17T21:33:07.742Z,16.65
2019-05-17T21:41:28.869Z,16.54
2019-05-17T21:49:50.117Z,16.47
2019-05-17T22:06:37.527Z,16.45
2019-05-17T22:14:58.668Z,16.37
2019-05-17T22:23:19.946Z,16.15
2019-05-17T22:31:41.158Z,16.04
2019-05-17T22:40:02.331Z,15.99
2019-05-17T22:48:23.823Z,15.87
2019-05-17T22:56:45.284Z,15.79
2019-05-17T23:05:06.419Z,15.62
2019-05-17T23:13:27.514Z,15.50
2019-05-17T23:21:48.660Z,15.46
2019-05-17T23:30:09.804Z,15.47
2019-05-17T23:38:31.287Z,15.27
2019-05-17T23:47:06.032Z,14.97
2019-05-17T23:55:15.642Z,14.78
